sensor_id;sensor_type;location;lat;lon;timestamp;temperature;humidity
20200;DHT22;36284;37.236;-121.934;2023-07-31T00:00:19;31.40;93.50
20200;DHT22;36284;37.236;-121.934;2023-07-31T00:02:46;31.10;93.30
20200;DHT22;36284;37.236;-121.934;2023-07-31T00:05:13;31.30;93.30
20200;DHT22;36284;37.236;-121.934;2023-07-31T00:07:39;30.90;92.70
20200;DHT22;36284;37.236;-121.934;2023-07-31T00:10:07;30.90;93.20
20200;DHT22;36284;37.236;-121.934;2023-07-31T00:12:34;30.70;92.80
20200;DHT22;36284;37.236;-121.934;2023-07-31T00:15:01;30.80;92.70
20200;DHT22;36284;37.236;-121.934;2023-07-31T00:17:29;30.30;93.00
20200;DHT22;36284;37.236;-121.934;2023-07-31T00:19:55;30.90;93.20
20200;DHT22;36284;37.236;-121.934;2023-07-31T00:22:22;30.40;93.60
20200;DHT22;36284;37.236;-121.934;2023-07-31T00:24:49;30.10;94.50
20200;DHT22;36284;37.236;-121.934;2023-07-31T00:27:16;30.10;94.70
20200;DHT22;36284;37.236;-121.934;2023-07-31T00:29:43;29.60;94.00
20200;DHT22;36284;37.236;-121.934;2023-07-31T00:32:10;30.10;93.90
20200;DHT22;36284;37.236;-121.934;2023-07-31T00:34:37;30.40;94.30
20200;DHT22;36284;37.236;-121.934;2023-07-31T00:37:05;30.00;93.40
20200;DHT22;36284;37.236;-121.934;2023-07-31T00:39:33;29.90;93.70
20200;DHT22;36284;37.236;-121.934;2023-07-31T00:42:01;30.00;94.10
20200;DHT22;36284;37.236;-121.934;2023-07-31T00:44:28;29.90;94.60
20200;DHT22;36284;37.236;-121.934;2023-07-31T00:46:56;29.80;95.30
20200;DHT22;36284;37.236;-121.934;2023-07-31T00:49:26;30.10;95.40
20200;DHT22;36284;37.236;-121.934;2023-07-31T00:51:54;29.90;94.80
20200;DHT22;36284;37.236;-121.934;2023-07-31T00:54:21;29.40;95.00
20200;DHT22;36284;37.236;-121.934;2023-07-31T00:56:48;29.30;94.80
20200;DHT22;36284;37.236;-121.934;2023-07-31T00:59:15;29.30;94.70
20200;DHT22;36284;37.236;-121.934;2023-07-31T01:01:45;29.10;93.90
20200;DHT22;36284;37.236;-121.934;2023-07-31T01:04:13;29.00;94.00
20200;DHT22;36284;37.236;-121.934;2023-07-31T01:06:51;29.20;94.10
20200;DHT22;36284;37.236;-121.934;2023-07-31T01:12:01;29.00;94.60
20200;DHT22;36284;37.236;-121.934;2023-07-31T01:14:29;29.00;94.80
20200;DHT22;36284;37.236;-121.934;2023-07-31T01:16:55;28.80;95.40
20200;DHT22;36284;37.236;-121.934;2023-07-31T01:19:24;29.00;95.50
20200;DHT22;36284;37.236;-121.934;2023-07-31T01:24:36;28.20;96.20
20200;DHT22;36284;37.236;-121.934;2023-07-31T01:27:12;28.30;95.90
20200;DHT22;36284;37.236;-121.934;2023-07-31T01:32:40;28.20;95.60
20200;DHT22;36284;37.236;-121.934;2023-07-31T01:35:08;28.00;95.60
20200;DHT22;36284;37.236;-121.934;2023-07-31T01:37:35;27.70;95.40
20200;DHT22;36284;37.236;-121.934;2023-07-31T01:40:03;27.40;95.30
20200;DHT22;36284;37.236;-121.934;2023-07-31T01:42:31;27.50;95.70
20200;DHT22;36284;37.236;-121.934;2023-07-31T01:44:58;27.80;95.90
20200;DHT22;36284;37.236;-121.934;2023-07-31T01:47:25;27.90;95.40
20200;DHT22;36284;37.236;-121.934;2023-07-31T01:49:52;27.60;94.90
20200;DHT22;36284;37.236;-121.934;2023-07-31T01:52:18;27.40;94.60
20200;DHT22;36284;37.236;-121.934;2023-07-31T01:54:46;27.00;95.10
20200;DHT22;36284;37.236;-121.934;2023-07-31T01:57:13;26.90;95.30
20200;DHT22;36284;37.236;-121.934;2023-07-31T01:59:40;26.80;95.00
20200;DHT22;36284;37.236;-121.934;2023-07-31T02:02:07;26.90;94.90
20200;DHT22;36284;37.236;-121.934;2023-07-31T02:04:34;26.90;94.80
20200;DHT22;36284;37.236;-121.934;2023-07-31T02:07:01;26.70;94.60
20200;DHT22;36284;37.236;-121.934;2023-07-31T02:09:28;26.80;94.80
20200;DHT22;36284;37.236;-121.934;2023-07-31T02:11:55;26.80;95.10
20200;DHT22;36284;37.236;-121.934;2023-07-31T02:14:22;26.60;94.90
20200;DHT22;36284;37.236;-121.934;2023-07-31T02:16:49;26.40;95.30
20200;DHT22;36284;37.236;-121.934;2023-07-31T02:19:16;26.30;95.30
20200;DHT22;36284;37.236;-121.934;2023-07-31T02:21:43;26.40;95.50
20200;DHT22;36284;37.236;-121.934;2023-07-31T02:24:10;26.30;96.20
20200;DHT22;36284;37.236;-121.934;2023-07-31T02:26:37;26.20;96.20
20200;DHT22;36284;37.236;-121.934;2023-07-31T02:29:04;26.10;96.50
20200;DHT22;36284;37.236;-121.934;2023-07-31T02:31:31;26.10;96.50
20200;DHT22;36284;37.236;-121.934;2023-07-31T02:33:58;26.00;96.80
20200;DHT22;36284;37.236;-121.934;2023-07-31T02:36:25;25.90;96.80
20200;DHT22;36284;37.236;-121.934;2023-07-31T02:38:52;25.70;97.10
20200;DHT22;36284;37.236;-121.934;2023-07-31T02:41:19;25.50;97.40
20200;DHT22;36284;37.236;-121.934;2023-07-31T02:43:46;25.40;97.60
20200;DHT22;36284;37.236;-121.934;2023-07-31T02:46:13;25.40;98.30
20200;DHT22;36284;37.236;-121.934;2023-07-31T02:48:40;25.40;98.20
20200;DHT22;36284;37.236;-121.934;2023-07-31T02:51:07;25.30;98.40
20200;DHT22;36284;37.236;-121.934;2023-07-31T02:53:34;25.20;98.50
20200;DHT22;36284;37.236;-121.934;2023-07-31T02:56:01;25.00;98.30
20200;DHT22;36284;37.236;-121.934;2023-07-31T02:58:28;24.90;98.40
20200;DHT22;36284;37.236;-121.934;2023-07-31T03:00:55;24.90;99.90
20200;DHT22;36284;37.236;-121.934;2023-07-31T03:03:22;24.80;99.90
20200;DHT22;36284;37.236;-121.934;2023-07-31T03:05:49;24.70;99.90
20200;DHT22;36284;37.236;-121.934;2023-07-31T03:08:16;24.60;99.60
20200;DHT22;36284;37.236;-121.934;2023-07-31T03:10:43;24.40;99.60
20200;DHT22;36284;37.236;-121.934;2023-07-31T03:13:10;24.30;99.90
20200;DHT22;36284;37.236;-121.934;2023-07-31T03:15:37;24.20;99.90
20200;DHT22;36284;37.236;-121.934;2023-07-31T03:18:04;24.10;99.90
20200;DHT22;36284;37.236;-121.934;2023-07-31T03:20:31;24.00;99.90
20200;DHT22;36284;37.236;-121.934;2023-07-31T03:22:58;23.80;99.90
20200;DHT22;36284;37.236;-121.934;2023-07-31T03:25:25;23.60;99.90
20200;DHT22;36284;37.236;-121.934;2023-07-31T03:27:52;23.50;99.90
20200;DHT22;36284;37.236;-121.934;2023-07-31T03:30:19;23.40;99.90
20200;DHT22;36284;37.236;-121.934;2023-07-31T03:32:46;23.30;99.90
20200;DHT22;36284;37.236;-121.934;2023-07-31T03:35:12;23.20;99.90
20200;DHT22;36284;37.236;-121.934;2023-07-31T03:37:39;23.10;99.90
20200;DHT22;36284;37.236;-121.934;2023-07-31T03:40:07;22.90;99.90
20200;DHT22;36284;37.236;-121.934;2023-07-31T03:42:34;22.80;99.90
20200;DHT22;36284;37.236;-121.934;2023-07-31T03:45:01;22.40;99.90
20200;DHT22;36284;37.236;-121.934;2023-07-31T03:47:28;22.40;99.90
20200;DHT22;36284;37.236;-121.934;2023-07-31T03:49:55;22.20;99.90
20200;DHT22;36284;37.236;-121.934;2023-07-31T03:52:22;22.00;99.90
20200;DHT22;36284;37.236;-121.934;2023-07-31T03:54:49;21.90;99.90
20200;DHT22;36284;37.236;-121.934;2023-07-31T03:57:16;21.60;99.90
20200;DHT22;36284;37.236;-121.934;2023-07-31T03:59:43;21.30;99.90
20200;DHT22;36284;37.236;-121.934;2023-07-31T04:02:10;21.20;99.90
20200;DHT22;36284;37.236;-121.934;2023-07-31T04:04:37;21.10;99.90
20200;DHT22;36284;37.236;-121.934;2023-07-31T04:07:04;21.00;99.90
20200;DHT22;36284;37.236;-121.934;2023-07-31T04:09:31;20.90;99.90
20200;DHT22;36284;37.236;-121.934;2023-07-31T04:11:57;20.90;99.90
20200;DHT22;36284;37.236;-121.934;2023-07-31T04:14:24;20.80;99.90
20200;DHT22;36284;37.236;-121.934;2023-07-31T04:16:51;20.60;99.90
20200;DHT22;36284;37.236;-121.934;2023-07-31T04:19:18;20.60;99.90
20200;DHT22;36284;37.236;-121.934;2023-07-31T04:21:45;20.50;99.90
20200;DHT22;36284;37.236;-121.934;2023-07-31T04:24:12;20.50;99.90
20200;DHT22;36284;37.236;-121.934;2023-07-31T04:26:39;20.40;99.90
20200;DHT22;36284;37.236;-121.934;2023-07-31T04:29:06;20.30;99.90
20200;DHT22;36284;37.236;-121.934;2023-07-31T04:31:34;20.20;99.90
20200;DHT22;36284;37.236;-121.934;2023-07-31T04:34:01;20.20;99.90
20200;DHT22;36284;37.236;-121.934;2023-07-31T04:36:28;20.10;99.90
20200;DHT22;36284;37.236;-121.934;2023-07-31T04:38:54;20.00;99.90
20200;DHT22;36284;37.236;-121.934;2023-07-31T04:41:22;19.90;99.90
20200;DHT22;36284;37.236;-121.934;2023-07-31T04:43:49;19.90;99.90
20200;DHT22;36284;37.236;-121.934;2023-07-31T04:46:15;19.80;99.90
20200;DHT22;36284;37.236;-121.934;2023-07-31T04:48:43;19.80;99.90
20200;DHT22;36284;37.236;-121.934;2023-07-31T04:51:10;19.60;99.90
20200;DHT22;36284;37.236;-121.934;2023-07-31T04:53:37;19.50;99.90
20200;DHT22;36284;37.236;-121.934;2023-07-31T04:56:04;19.50;99.90
20200;DHT22;36284;37.236;-121.934;2023-07-31T04:58:31;19.50;99.90
20200;DHT22;36284;37.236;-121.934;2023-07-31T05:00:58;19.40;99.90
20200;DHT22;36284;37.236;-121.934;2023-07-31T05:03:25;19.20;99.90
20200;DHT22;36284;37.236;-121.934;2023-07-31T05:05:51;19.20;99.90
20200;DHT22;36284;37.236;-121.934;2023-07-31T05:08:18;19.10;99.90
20200;DHT22;36284;37.236;-121.934;2023-07-31T05:10:45;19.00;99.90
20200;DHT22;36284;37.236;-121.934;2023-07-31T05:13:12;18.90;99.90
20200;DHT22;36284;37.236;-121.934;2023-07-31T05:15:41;18.90;99.90
20200;DHT22;36284;37.236;-121.934;2023-07-31T05:18:08;18.80;99.90
20200;DHT22;36284;37.236;-121.934;2023-07-31T05:20:35;18.60;99.90
20200;DHT22;36284;37.236;-121.934;2023-07-31T05:23:02;18.60;99.90
20200;DHT22;36284;37.236;-121.934;2023-07-31T05:25:29;18.60;99.90
20200;DHT22;36284;37.236;-121.934;2023-07-31T05:27:56;18.60;99.90
20200;DHT22;36284;37.236;-121.934;2023-07-31T05:30:23;18.40;99.90
20200;DHT22;36284;37.236;-121.934;2023-07-31T05:32:50;18.20;99.90
20200;DHT22;36284;37.236;-121.934;2023-07-31T05:35:17;18.20;99.90
20200;DHT22;36284;37.236;-121.934;2023-07-31T05:37:43;18.10;99.90
20200;DHT22;36284;37.236;-121.934;2023-07-31T05:40:11;18.00;99.90
20200;DHT22;36284;37.236;-121.934;2023-07-31T05:42:38;18.00;99.90
20200;DHT22;36284;37.236;-121.934;2023-07-31T05:45:06;17.90;99.90
20200;DHT22;36284;37.236;-121.934;2023-07-31T05:47:33;17.90;99.90
20200;DHT22;36284;37.236;-121.934;2023-07-31T05:50:00;17.90;99.90
20200;DHT22;36284;37.236;-121.934;2023-07-31T05:52:27;17.80;99.90
20200;DHT22;36284;37.236;-121.934;2023-07-31T05:54:55;17.70;99.90
20200;DHT22;36284;37.236;-121.934;2023-07-31T05:57:22;17.70;99.90
20200;DHT22;36284;37.236;-121.934;2023-07-31T05:59:49;17.70;99.90
20200;DHT22;36284;37.236;-121.934;2023-07-31T06:02:16;17.60;99.90
20200;DHT22;36284;37.236;-121.934;2023-07-31T06:04:43;17.60;99.90
20200;DHT22;36284;37.236;-121.934;2023-07-31T06:07:10;17.50;99.90
20200;DHT22;36284;37.236;-121.934;2023-07-31T06:09:37;17.40;99.90
20200;DHT22;36284;37.236;-121.934;2023-07-31T06:12:04;17.30;99.90
20200;DHT22;36284;37.236;-121.934;2023-07-31T06:14:31;17.50;99.90
20200;DHT22;36284;37.236;-121.934;2023-07-31T06:16:58;17.40;99.90
20200;DHT22;36284;37.236;-121.934;2023-07-31T06:19:25;17.30;99.90
20200;DHT22;36284;37.236;-121.934;2023-07-31T06:21:52;17.30;99.90
20200;DHT22;36284;37.236;-121.934;2023-07-31T06:24:19;17.20;99.90
20200;DHT22;36284;37.236;-121.934;2023-07-31T06:26:47;17.30;99.90
20200;DHT22;36284;37.236;-121.934;2023-07-31T06:29:14;17.30;99.90
20200;DHT22;36284;37.236;-121.934;2023-07-31T06:31:41;17.20;99.90
20200;DHT22;36284;37.236;-121.934;2023-07-31T06:34:08;17.20;99.90
20200;DHT22;36284;37.236;-121.934;2023-07-31T06:36:35;17.10;99.90
20200;DHT22;36284;37.236;-121.934;2023-07-31T06:39:02;17.20;99.90
20200;DHT22;36284;37.236;-121.934;2023-07-31T06:41:30;17.20;99.90
20200;DHT22;36284;37.236;-121.934;2023-07-31T06:43:57;17.10;99.90
20200;DHT22;36284;37.236;-121.934;2023-07-31T06:46:24;17.10;99.90
20200;DHT22;36284;37.236;-121.934;2023-07-31T06:48:51;17.10;99.90
20200;DHT22;36284;37.236;-121.934;2023-07-31T06:51:18;17.10;99.90
20200;DHT22;36284;37.236;-121.934;2023-07-31T06:53:45;17.10;99.90
20200;DHT22;36284;37.236;-121.934;2023-07-31T06:56:12;17.00;99.90
20200;DHT22;36284;37.236;-121.934;2023-07-31T06:58:39;17.00;99.90
20200;DHT22;36284;37.236;-121.934;2023-07-31T07:01:06;17.00;99.90
20200;DHT22;36284;37.236;-121.934;2023-07-31T07:03:33;17.00;99.90
20200;DHT22;36284;37.236;-121.934;2023-07-31T07:06:00;16.90;99.90
20200;DHT22;36284;37.236;-121.934;2023-07-31T07:08:27;16.90;99.90
20200;DHT22;36284;37.236;-121.934;2023-07-31T07:10:54;16.90;99.90
20200;DHT22;36284;37.236;-121.934;2023-07-31T07:13:21;16.80;99.90
20200;DHT22;36284;37.236;-121.934;2023-07-31T07:15:49;16.70;99.90
20200;DHT22;36284;37.236;-121.934;2023-07-31T07:18:16;16.60;99.90
20200;DHT22;36284;37.236;-121.934;2023-07-31T07:20:53;16.50;99.90
20200;DHT22;36284;37.236;-121.934;2023-07-31T07:23:21;16.50;99.90
20200;DHT22;36284;37.236;-121.934;2023-07-31T07:25:48;16.50;99.90
20200;DHT22;36284;37.236;-121.934;2023-07-31T07:28:15;16.50;99.90
20200;DHT22;36284;37.236;-121.934;2023-07-31T07:30:42;16.30;99.90
20200;DHT22;36284;37.236;-121.934;2023-07-31T07:33:09;16.20;99.90
20200;DHT22;36284;37.236;-121.934;2023-07-31T07:35:36;16.30;99.90
20200;DHT22;36284;37.236;-121.934;2023-07-31T07:38:03;16.10;99.90
20200;DHT22;36284;37.236;-121.934;2023-07-31T07:40:30;16.00;99.90
20200;DHT22;36284;37.236;-121.934;2023-07-31T07:42:57;16.00;99.90
20200;DHT22;36284;37.236;-121.934;2023-07-31T07:45:24;16.10;99.90
20200;DHT22;36284;37.236;-121.934;2023-07-31T07:47:51;16.10;99.90
20200;DHT22;36284;37.236;-121.934;2023-07-31T07:50:18;16.00;99.90
20200;DHT22;36284;37.236;-121.934;2023-07-31T07:52:45;15.90;99.90
20200;DHT22;36284;37.236;-121.934;2023-07-31T07:55:12;15.90;99.90
20200;DHT22;36284;37.236;-121.934;2023-07-31T07:57:39;15.90;99.90
20200;DHT22;36284;37.236;-121.934;2023-07-31T08:00:06;15.80;99.90
20200;DHT22;36284;37.236;-121.934;2023-07-31T08:02:33;15.70;99.90
20200;DHT22;36284;37.236;-121.934;2023-07-31T08:05:00;15.70;99.90
20200;DHT22;36284;37.236;-121.934;2023-07-31T08:07:27;15.60;99.90
20200;DHT22;36284;37.236;-121.934;2023-07-31T08:09:54;15.60;99.90
20200;DHT22;36284;37.236;-121.934;2023-07-31T08:12:21;15.60;99.90
20200;DHT22;36284;37.236;-121.934;2023-07-31T08:14:48;15.50;99.90
20200;DHT22;36284;37.236;-121.934;2023-07-31T08:17:15;15.40;99.90
20200;DHT22;36284;37.236;-121.934;2023-07-31T08:19:42;15.50;99.90
20200;DHT22;36284;37.236;-121.934;2023-07-31T08:22:10;15.60;99.90
20200;DHT22;36284;37.236;-121.934;2023-07-31T08:24:37;15.60;99.90
20200;DHT22;36284;37.236;-121.934;2023-07-31T08:27:06;15.50;99.90
20200;DHT22;36284;37.236;-121.934;2023-07-31T08:29:33;15.50;99.90
20200;DHT22;36284;37.236;-121.934;2023-07-31T08:32:00;15.40;99.90
20200;DHT22;36284;37.236;-121.934;2023-07-31T08:34:27;15.40;99.90
20200;DHT22;36284;37.236;-121.934;2023-07-31T08:36:54;15.50;99.90
20200;DHT22;36284;37.236;-121.934;2023-07-31T08:39:21;15.30;99.90
20200;DHT22;36284;37.236;-121.934;2023-07-31T08:41:48;15.40;99.90
20200;DHT22;36284;37.236;-121.934;2023-07-31T08:44:15;15.40;99.90
20200;DHT22;36284;37.236;-121.934;2023-07-31T08:46:45;15.30;99.90
20200;DHT22;36284;37.236;-121.934;2023-07-31T08:49:13;15.20;99.90
20200;DHT22;36284;37.236;-121.934;2023-07-31T08:51:40;15.10;99.90
20200;DHT22;36284;37.236;-121.934;2023-07-31T08:54:08;15.20;99.90
20200;DHT22;36284;37.236;-121.934;2023-07-31T08:56:36;15.10;99.90
20200;DHT22;36284;37.236;-121.934;2023-07-31T08:59:04;15.00;99.90
20200;DHT22;36284;37.236;-121.934;2023-07-31T09:01:36;15.00;99.90
20200;DHT22;36284;37.236;-121.934;2023-07-31T09:04:09;15.00;99.90
20200;DHT22;36284;37.236;-121.934;2023-07-31T09:06:37;15.00;99.90
20200;DHT22;36284;37.236;-121.934;2023-07-31T09:09:05;14.90;99.90
20200;DHT22;36284;37.236;-121.934;2023-07-31T09:11:34;14.90;99.90
20200;DHT22;36284;37.236;-121.934;2023-07-31T09:14:01;14.80;99.90
20200;DHT22;36284;37.236;-121.934;2023-07-31T09:16:35;14.70;99.90
20200;DHT22;36284;37.236;-121.934;2023-07-31T09:19:02;14.70;99.90
20200;DHT22;36284;37.236;-121.934;2023-07-31T09:21:29;14.80;99.90
20200;DHT22;36284;37.236;-121.934;2023-07-31T09:23:56;14.80;99.90
20200;DHT22;36284;37.236;-121.934;2023-07-31T09:26:37;14.80;99.90
20200;DHT22;36284;37.236;-121.934;2023-07-31T09:29:06;14.90;99.90
20200;DHT22;36284;37.236;-121.934;2023-07-31T09:31:40;14.80;99.90
20200;DHT22;36284;37.236;-121.934;2023-07-31T09:34:08;14.70;99.90
20200;DHT22;36284;37.236;-121.934;2023-07-31T09:36:47;14.60;99.90
20200;DHT22;36284;37.236;-121.934;2023-07-31T09:39:16;14.70;99.90
20200;DHT22;36284;37.236;-121.934;2023-07-31T09:41:46;14.80;99.90
20200;DHT22;36284;37.236;-121.934;2023-07-31T09:44:14;14.70;99.90
20200;DHT22;36284;37.236;-121.934;2023-07-31T09:46:40;14.70;99.90
20200;DHT22;36284;37.236;-121.934;2023-07-31T09:49:09;14.70;99.90
20200;DHT22;36284;37.236;-121.934;2023-07-31T09:51:38;14.70;99.90
20200;DHT22;36284;37.236;-121.934;2023-07-31T09:54:15;14.70;99.90
20200;DHT22;36284;37.236;-121.934;2023-07-31T09:56:47;14.60;99.90
20200;DHT22;36284;37.236;-121.934;2023-07-31T09:59:17;14.60;99.90
20200;DHT22;36284;37.236;-121.934;2023-07-31T10:01:45;14.50;99.90
20200;DHT22;36284;37.236;-121.934;2023-07-31T10:04:13;14.50;99.90
20200;DHT22;36284;37.236;-121.934;2023-07-31T10:06:42;14.50;99.90
20200;DHT22;36284;37.236;-121.934;2023-07-31T10:09:12;14.50;99.90
20200;DHT22;36284;37.236;-121.934;2023-07-31T10:11:47;14.50;99.90
20200;DHT22;36284;37.236;-121.934;2023-07-31T10:14:21;14.40;99.90
20200;DHT22;36284;37.236;-121.934;2023-07-31T10:16:50;14.40;99.90
20200;DHT22;36284;37.236;-121.934;2023-07-31T10:19:19;14.50;99.90
20200;DHT22;36284;37.236;-121.934;2023-07-31T10:21:49;14.50;99.90
20200;DHT22;36284;37.236;-121.934;2023-07-31T10:24:16;14.50;99.90
20200;DHT22;36284;37.236;-121.934;2023-07-31T10:26:45;14.50;99.90
20200;DHT22;36284;37.236;-121.934;2023-07-31T10:29:15;14.40;99.90
20200;DHT22;36284;37.236;-121.934;2023-07-31T10:31:42;14.40;99.90
20200;DHT22;36284;37.236;-121.934;2023-07-31T10:34:10;14.40;99.90
20200;DHT22;36284;37.236;-121.934;2023-07-31T10:36:37;14.40;99.90
20200;DHT22;36284;37.236;-121.934;2023-07-31T10:39:04;14.40;99.90
20200;DHT22;36284;37.236;-121.934;2023-07-31T10:41:51;14.20;99.90
20200;DHT22;36284;37.236;-121.934;2023-07-31T10:44:18;14.30;99.90
20200;DHT22;36284;37.236;-121.934;2023-07-31T10:46:46;14.40;99.90
20200;DHT22;36284;37.236;-121.934;2023-07-31T10:49:21;14.30;99.90
20200;DHT22;36284;37.236;-121.934;2023-07-31T10:51:48;14.40;99.90
20200;DHT22;36284;37.236;-121.934;2023-07-31T10:54:16;14.30;99.90
20200;DHT22;36284;37.236;-121.934;2023-07-31T10:56:46;14.30;99.90
20200;DHT22;36284;37.236;-121.934;2023-07-31T10:59:14;14.30;99.90
20200;DHT22;36284;37.236;-121.934;2023-07-31T11:01:54;14.40;99.90
20200;DHT22;36284;37.236;-121.934;2023-07-31T11:04:24;14.30;99.90
20200;DHT22;36284;37.236;-121.934;2023-07-31T11:07:01;14.30;99.90
20200;DHT22;36284;37.236;-121.934;2023-07-31T11:09:30;14.30;99.90
20200;DHT22;36284;37.236;-121.934;2023-07-31T11:11:59;14.20;99.90
20200;DHT22;36284;37.236;-121.934;2023-07-31T11:14:26;14.00;99.90
20200;DHT22;36284;37.236;-121.934;2023-07-31T11:16:54;14.10;99.90
20200;DHT22;36284;37.236;-121.934;2023-07-31T11:19:24;14.10;99.90
20200;DHT22;36284;37.236;-121.934;2023-07-31T11:21:52;14.00;99.90
20200;DHT22;36284;37.236;-121.934;2023-07-31T11:24:19;14.00;99.90
20200;DHT22;36284;37.236;-121.934;2023-07-31T11:26:51;14.00;99.90
20200;DHT22;36284;37.236;-121.934;2023-07-31T11:29:19;14.00;99.90
20200;DHT22;36284;37.236;-121.934;2023-07-31T11:31:47;13.90;99.90
20200;DHT22;36284;37.236;-121.934;2023-07-31T11:34:15;13.80;99.90
20200;DHT22;36284;37.236;-121.934;2023-07-31T11:36:55;13.80;99.90
20200;DHT22;36284;37.236;-121.934;2023-07-31T11:39:22;13.80;99.90
20200;DHT22;36284;37.236;-121.934;2023-07-31T11:41:49;13.70;99.90
20200;DHT22;36284;37.236;-121.934;2023-07-31T11:44:16;13.60;99.90
20200;DHT22;36284;37.236;-121.934;2023-07-31T11:46:43;13.60;99.90
20200;DHT22;36284;37.236;-121.934;2023-07-31T11:49:10;13.60;99.90
20200;DHT22;36284;37.236;-121.934;2023-07-31T11:51:38;13.60;99.90
20200;DHT22;36284;37.236;-121.934;2023-07-31T11:54:05;13.60;99.90
20200;DHT22;36284;37.236;-121.934;2023-07-31T11:56:33;13.50;99.90
20200;DHT22;36284;37.236;-121.934;2023-07-31T11:59:01;13.60;99.90
20200;DHT22;36284;37.236;-121.934;2023-07-31T12:01:30;13.60;99.90
20200;DHT22;36284;37.236;-121.934;2023-07-31T12:03:57;13.60;99.90
20200;DHT22;36284;37.236;-121.934;2023-07-31T12:06:35;13.50;99.90
20200;DHT22;36284;37.236;-121.934;2023-07-31T12:09:05;13.50;99.90
20200;DHT22;36284;37.236;-121.934;2023-07-31T12:11:46;13.50;99.90
20200;DHT22;36284;37.236;-121.934;2023-07-31T12:14:27;13.50;99.90
20200;DHT22;36284;37.236;-121.934;2023-07-31T12:17:00;13.60;99.90
20200;DHT22;36284;37.236;-121.934;2023-07-31T12:19:28;13.50;99.90
20200;DHT22;36284;37.236;-121.934;2023-07-31T12:21:56;13.50;99.90
20200;DHT22;36284;37.236;-121.934;2023-07-31T12:24:25;13.30;99.90
20200;DHT22;36284;37.236;-121.934;2023-07-31T12:26:53;13.20;99.90
20200;DHT22;36284;37.236;-121.934;2023-07-31T12:29:21;13.20;99.90
20200;DHT22;36284;37.236;-121.934;2023-07-31T12:31:48;13.30;99.90
20200;DHT22;36284;37.236;-121.934;2023-07-31T12:34:19;13.30;99.90
20200;DHT22;36284;37.236;-121.934;2023-07-31T12:36:47;13.20;99.90
20200;DHT22;36284;37.236;-121.934;2023-07-31T12:39:17;13.30;99.90
20200;DHT22;36284;37.236;-121.934;2023-07-31T12:41:44;13.30;99.90
20200;DHT22;36284;37.236;-121.934;2023-07-31T12:44:11;13.30;99.90
20200;DHT22;36284;37.236;-121.934;2023-07-31T12:46:38;13.30;99.90
20200;DHT22;36284;37.236;-121.934;2023-07-31T12:49:05;13.20;99.90
20200;DHT22;36284;37.236;-121.934;2023-07-31T12:51:31;13.10;99.90
20200;DHT22;36284;37.236;-121.934;2023-07-31T12:53:58;13.00;99.90
20200;DHT22;36284;37.236;-121.934;2023-07-31T12:56:25;13.00;99.90
20200;DHT22;36284;37.236;-121.934;2023-07-31T12:58:52;13.00;99.90
20200;DHT22;36284;37.236;-121.934;2023-07-31T13:01:19;13.10;99.90
20200;DHT22;36284;37.236;-121.934;2023-07-31T13:03:46;13.00;99.90
20200;DHT22;36284;37.236;-121.934;2023-07-31T13:06:13;13.00;99.90
20200;DHT22;36284;37.236;-121.934;2023-07-31T13:08:40;12.90;99.90
20200;DHT22;36284;37.236;-121.934;2023-07-31T13:11:07;13.00;99.90
20200;DHT22;36284;37.236;-121.934;2023-07-31T13:13:34;13.00;99.90
20200;DHT22;36284;37.236;-121.934;2023-07-31T13:16:01;13.00;99.90
20200;DHT22;36284;37.236;-121.934;2023-07-31T13:18:28;13.00;99.90
20200;DHT22;36284;37.236;-121.934;2023-07-31T13:20:55;13.00;99.90
20200;DHT22;36284;37.236;-121.934;2023-07-31T13:23:22;13.10;99.90
20200;DHT22;36284;37.236;-121.934;2023-07-31T13:25:49;13.10;99.90
20200;DHT22;36284;37.236;-121.934;2023-07-31T13:28:16;13.30;99.90
20200;DHT22;36284;37.236;-121.934;2023-07-31T13:30:43;13.20;99.90
20200;DHT22;36284;37.236;-121.934;2023-07-31T13:33:09;13.10;99.90
20200;DHT22;36284;37.236;-121.934;2023-07-31T13:35:36;13.10;99.90
20200;DHT22;36284;37.236;-121.934;2023-07-31T13:38:03;13.10;99.90
20200;DHT22;36284;37.236;-121.934;2023-07-31T13:40:32;13.30;99.90
20200;DHT22;36284;37.236;-121.934;2023-07-31T13:42:59;13.20;99.90
20200;DHT22;36284;37.236;-121.934;2023-07-31T13:45:26;13.30;99.90
20200;DHT22;36284;37.236;-121.934;2023-07-31T13:47:53;13.40;99.90
20200;DHT22;36284;37.236;-121.934;2023-07-31T13:50:20;13.30;99.90
20200;DHT22;36284;37.236;-121.934;2023-07-31T13:52:48;13.50;99.90
20200;DHT22;36284;37.236;-121.934;2023-07-31T13:55:15;13.70;99.90
20200;DHT22;36284;37.236;-121.934;2023-07-31T13:57:42;14.20;99.90
20200;DHT22;36284;37.236;-121.934;2023-07-31T14:00:10;14.40;99.90
20200;DHT22;36284;37.236;-121.934;2023-07-31T14:02:37;14.60;99.90
20200;DHT22;36284;37.236;-121.934;2023-07-31T14:07:32;16.70;99.90
20200;DHT22;36284;37.236;-121.934;2023-07-31T14:09:59;17.30;99.90
20200;DHT22;36284;37.236;-121.934;2023-07-31T14:12:26;16.70;99.90
20200;DHT22;36284;37.236;-121.934;2023-07-31T14:14:53;16.50;99.90
20200;DHT22;36284;37.236;-121.934;2023-07-31T14:17:20;16.50;99.90
20200;DHT22;36284;37.236;-121.934;2023-07-31T14:19:47;16.60;99.90
20200;DHT22;36284;37.236;-121.934;2023-07-31T14:22:14;16.90;99.90
20200;DHT22;36284;37.236;-121.934;2023-07-31T14:24:41;17.10;99.90
20200;DHT22;36284;37.236;-121.934;2023-07-31T14:27:08;17.40;99.90
20200;DHT22;36284;37.236;-121.934;2023-07-31T14:29:35;17.90;99.90
20200;DHT22;36284;37.236;-121.934;2023-07-31T14:32:02;20.00;99.90
20200;DHT22;36284;37.236;-121.934;2023-07-31T14:34:30;20.30;99.90
20200;DHT22;36284;37.236;-121.934;2023-07-31T14:36:56;21.30;99.90
20200;DHT22;36284;37.236;-121.934;2023-07-31T14:39:23;21.70;99.90
20200;DHT22;36284;37.236;-121.934;2023-07-31T14:41:50;22.00;99.90
20200;DHT22;36284;37.236;-121.934;2023-07-31T14:44:17;21.40;99.90
20200;DHT22;36284;37.236;-121.934;2023-07-31T14:46:44;22.30;99.90
20200;DHT22;36284;37.236;-121.934;2023-07-31T14:49:11;22.20;99.90
20200;DHT22;36284;37.236;-121.934;2023-07-31T14:51:38;22.80;99.90
20200;DHT22;36284;37.236;-121.934;2023-07-31T14:54:05;22.90;99.90
20200;DHT22;36284;37.236;-121.934;2023-07-31T14:56:32;22.20;99.90
20200;DHT22;36284;37.236;-121.934;2023-07-31T14:58:59;21.50;99.90
20200;DHT22;36284;37.236;-121.934;2023-07-31T15:01:26;21.20;99.90